Terminal Aerodrome Forecast
Issued by NWS Duluth, MN

Home | Current Version | Previous Version | Text Only | Print | Product List | Glossary On
Versions: 1 2 3 4 5 6 7 8 9 10 11 12 13
000
FTUS43 KDLH 250200 AAA
TAFINL
TAF AMD
KINL 250201Z 2502/2524 11009KT P6SM OVC035
     FM250300 12008KT P6SM OVC035
      TEMPO 2504/2508 BKN025 OVC035
     FM251500 09009KT P6SM BKN050
     FM252000 08008KT P6SM BKN100=

USA.gov is the U.S. government's official web portal to all federal, state and local government web resources and services.